This is the latest recevied weather packets stored in our database for station/object OK1JIL-13. If no packets are shown the sender has not sent any weather packets the latest 1 day(s).
| Time | Temp. | Humidity | Pressure | Rain* | Wind** | Luminosity | Snow |
|---|---|---|---|---|---|---|---|
| 1778076597 | 18.33° C | 45% | 1008.2 hPa | - | - | - | - |
| 1778074798 | 19.44° C | 46% | 1008.4 hPa | - | - | - | - |
| 1778074198 | 20.56° C | 44% | 1008.4 hPa | - | - | - | - |
| 1778071197 | 19.44° C | 49% | 1008.8 hPa | - | - | - | - |
| 1778068196 | 18.89° C | 53% | 1008.8 hPa | - | - | - | - |
| 1778067596 | 18.33° C | 54% | 1008.9 hPa | - | - | - | - |
| 1778066996 | 17.78° C | 54% | 1008.9 hPa | - | - | - | - |
| 1778062196 | 16.11° C | 62% | 1008.6 hPa | - | - | - | - |
| 1778061596 | 16.67° C | 64% | 1008.5 hPa | - | - | - | - |
| 1778060396 | 15° C | 64% | 1008.4 hPa | - | - | - | - |
| 1778059196 | 15° C | 62% | 1008.4 hPa | - | - | - | - |
| 1778058596 | 14.44° C | 65% | 1008.4 hPa | - | - | - | - |
| 1778057395 | 15° C | 65% | 1008.2 hPa | - | - | - | - |
| 1778056196 | 13.89° C | 66% | 1008 hPa | - | - | - | - |
| 1778053196 | 13.33° C | 68% | 1007.5 hPa | - | - | - | - |
| 1778051395 | 13.33° C | 69% | 1007.6 hPa | - | - | - | - |
| 1778050196 | 11.67° C | 71% | 1007.2 hPa | - | - | - | - |
| 1778047195 | 12.22° C | 70% | 1007.2 hPa | - | - | - | - |
| 1778045995 | 12.22° C | 69% | 1007.1 hPa | - | - | - | - |
| 1778044195 | 11.67° C | 73% | 1007.1 hPa | - | - | - | - |
| 1778042995 | 12.78° C | 68% | 1007 hPa | - | - | - | - |
| 1778042395 | 12.22° C | 70% | 1006.7 hPa | - | - | - | - |
| 1778039996 | 12.22° C | 71% | 1006.7 hPa | - | - | - | - |
| 1778037595 | 13.33° C | 67% | 1006.8 hPa | - | - | - | - |
| 1778036996 | 13.89° C | 66% | 1006.8 hPa | - | - | - | - |
* Rain since midnight (hover to see other rain measurements)
** Current wind speed in m/s (hover to see current wind gust speed)